sensor_id;sensor_type;location;lat;lon;timestamp;P1;durP1;ratioP1;P2;durP2;ratioP2
16922;SDS011;8578;50.938;13.556;2022-08-21T00:00:51;34.83;;;18.17;;
16922;SDS011;8578;50.938;13.556;2022-08-21T00:03:18;31.20;;;18.50;;
16922;SDS011;8578;50.938;13.556;2022-08-21T00:05:47;30.67;;;19.20;;
16922;SDS011;8578;50.938;13.556;2022-08-21T00:08:16;31.20;;;19.27;;
16922;SDS011;8578;50.938;13.556;2022-08-21T00:10:44;29.97;;;18.93;;
16922;SDS011;8578;50.938;13.556;2022-08-21T00:13:12;32.60;;;19.23;;
16922;SDS011;8578;50.938;13.556;2022-08-21T00:15:44;34.80;;;19.90;;
16922;SDS011;8578;50.938;13.556;2022-08-21T00:18:11;33.13;;;19.33;;
16922;SDS011;8578;50.938;13.556;2022-08-21T00:20:39;30.57;;;19.67;;
16922;SDS011;8578;50.938;13.556;2022-08-21T00:23:07;32.20;;;19.33;;
16922;SDS011;8578;50.938;13.556;2022-08-21T00:25:34;31.53;;;19.00;;
16922;SDS011;8578;50.938;13.556;2022-08-21T00:28:03;30.17;;;19.40;;
16922;SDS011;8578;50.938;13.556;2022-08-21T00:30:32;33.40;;;20.63;;
16922;SDS011;8578;50.938;13.556;2022-08-21T00:33:00;32.67;;;20.13;;
16922;SDS011;8578;50.938;13.556;2022-08-21T00:35:29;39.27;;;21.90;;
16922;SDS011;8578;50.938;13.556;2022-08-21T00:37:57;38.37;;;21.67;;
16922;SDS011;8578;50.938;13.556;2022-08-21T00:40:26;36.40;;;21.23;;
16922;SDS011;8578;50.938;13.556;2022-08-21T00:42:54;36.57;;;21.23;;
16922;SDS011;8578;50.938;13.556;2022-08-21T00:45:23;33.77;;;20.77;;
16922;SDS011;8578;50.938;13.556;2022-08-21T00:47:51;38.57;;;21.27;;
16922;SDS011;8578;50.938;13.556;2022-08-21T00:50:20;34.27;;;20.73;;
16922;SDS011;8578;50.938;13.556;2022-08-21T00:52:48;36.53;;;21.93;;
16922;SDS011;8578;50.938;13.556;2022-08-21T00:55:16;35.13;;;20.90;;
16922;SDS011;8578;50.938;13.556;2022-08-21T00:57:48;34.57;;;21.27;;
16922;SDS011;8578;50.938;13.556;2022-08-21T01:00:18;33.57;;;20.10;;
16922;SDS011;8578;50.938;13.556;2022-08-21T01:02:47;32.93;;;20.77;;
16922;SDS011;8578;50.938;13.556;2022-08-21T01:05:14;37.37;;;21.57;;
16922;SDS011;8578;50.938;13.556;2022-08-21T01:07:42;35.00;;;20.50;;
16922;SDS011;8578;50.938;13.556;2022-08-21T01:10:12;33.00;;;20.10;;
16922;SDS011;8578;50.938;13.556;2022-08-21T01:12:49;35.53;;;20.97;;
16922;SDS011;8578;50.938;13.556;2022-08-21T01:15:17;34.63;;;20.93;;
16922;SDS011;8578;50.938;13.556;2022-08-21T01:17:48;31.23;;;20.33;;
16922;SDS011;8578;50.938;13.556;2022-08-21T01:20:16;35.53;;;20.70;;
16922;SDS011;8578;50.938;13.556;2022-08-21T01:22:44;35.50;;;22.27;;
16922;SDS011;8578;50.938;13.556;2022-08-21T01:25:13;35.00;;;21.47;;
16922;SDS011;8578;50.938;13.556;2022-08-21T01:27:41;35.67;;;21.73;;
16922;SDS011;8578;50.938;13.556;2022-08-21T01:30:10;36.57;;;21.43;;
16922;SDS011;8578;50.938;13.556;2022-08-21T01:32:38;35.27;;;20.03;;
16922;SDS011;8578;50.938;13.556;2022-08-21T01:35:06;32.03;;;19.50;;
16922;SDS011;8578;50.938;13.556;2022-08-21T01:37:34;36.80;;;21.40;;
16922;SDS011;8578;50.938;13.556;2022-08-21T01:40:03;34.47;;;21.57;;
16922;SDS011;8578;50.938;13.556;2022-08-21T01:42:31;34.87;;;21.13;;
16922;SDS011;8578;50.938;13.556;2022-08-21T01:44:58;35.27;;;20.27;;
16922;SDS011;8578;50.938;13.556;2022-08-21T01:47:25;36.87;;;21.57;;
16922;SDS011;8578;50.938;13.556;2022-08-21T01:49:53;30.00;;;20.23;;
16922;SDS011;8578;50.938;13.556;2022-08-21T01:52:21;23.93;;;14.70;;
16922;SDS011;8578;50.938;13.556;2022-08-21T01:54:49;17.50;;;10.80;;
16922;SDS011;8578;50.938;13.556;2022-08-21T01:57:22;13.73;;;8.23;;
16922;SDS011;8578;50.938;13.556;2022-08-21T01:59:51;14.23;;;9.60;;
16922;SDS011;8578;50.938;13.556;2022-08-21T02:02:19;15.83;;;10.07;;
16922;SDS011;8578;50.938;13.556;2022-08-21T02:04:46;16.30;;;10.50;;
16922;SDS011;8578;50.938;13.556;2022-08-21T02:07:14;11.93;;;8.70;;
16922;SDS011;8578;50.938;13.556;2022-08-21T02:09:42;10.43;;;7.27;;
16922;SDS011;8578;50.938;13.556;2022-08-21T02:12:11;11.10;;;7.40;;
16922;SDS011;8578;50.938;13.556;2022-08-21T02:14:40;11.50;;;7.03;;
16922;SDS011;8578;50.938;13.556;2022-08-21T02:17:07;10.87;;;7.27;;
16922;SDS011;8578;50.938;13.556;2022-08-21T02:19:35;12.70;;;8.03;;
16922;SDS011;8578;50.938;13.556;2022-08-21T02:22:06;13.60;;;7.40;;
16922;SDS011;8578;50.938;13.556;2022-08-21T02:24:33;12.60;;;7.70;;
16922;SDS011;8578;50.938;13.556;2022-08-21T02:27:03;12.83;;;8.10;;
16922;SDS011;8578;50.938;13.556;2022-08-21T02:29:31;13.07;;;8.00;;
16922;SDS011;8578;50.938;13.556;2022-08-21T02:32:01;11.13;;;7.33;;
16922;SDS011;8578;50.938;13.556;2022-08-21T02:34:28;9.97;;;6.83;;
16922;SDS011;8578;50.938;13.556;2022-08-21T02:36:55;13.00;;;8.33;;
16922;SDS011;8578;50.938;13.556;2022-08-21T02:39:25;10.97;;;7.90;;
16922;SDS011;8578;50.938;13.556;2022-08-21T02:41:53;8.87;;;7.13;;
16922;SDS011;8578;50.938;13.556;2022-08-21T02:44:20;11.30;;;7.90;;
16922;SDS011;8578;50.938;13.556;2022-08-21T02:47:01;13.37;;;7.73;;
16922;SDS011;8578;50.938;13.556;2022-08-21T02:49:28;10.90;;;6.90;;
16922;SDS011;8578;50.938;13.556;2022-08-21T02:51:56;10.30;;;7.50;;
16922;SDS011;8578;50.938;13.556;2022-08-21T02:54:23;11.03;;;7.37;;
16922;SDS011;8578;50.938;13.556;2022-08-21T02:56:51;11.43;;;7.30;;
16922;SDS011;8578;50.938;13.556;2022-08-21T02:59:18;10.63;;;7.77;;
16922;SDS011;8578;50.938;13.556;2022-08-21T03:01:46;13.17;;;7.60;;
16922;SDS011;8578;50.938;13.556;2022-08-21T03:04:14;9.90;;;7.33;;
16922;SDS011;8578;50.938;13.556;2022-08-21T03:06:42;10.23;;;7.40;;
16922;SDS011;8578;50.938;13.556;2022-08-21T03:09:10;9.80;;;7.37;;
16922;SDS011;8578;50.938;13.556;2022-08-21T03:11:37;10.03;;;7.60;;
16922;SDS011;8578;50.938;13.556;2022-08-21T03:14:05;9.27;;;7.03;;
16922;SDS011;8578;50.938;13.556;2022-08-21T03:16:32;9.60;;;7.07;;
16922;SDS011;8578;50.938;13.556;2022-08-21T03:19:01;11.33;;;7.23;;
16922;SDS011;8578;50.938;13.556;2022-08-21T03:21:30;12.00;;;7.40;;
16922;SDS011;8578;50.938;13.556;2022-08-21T03:23:58;9.53;;;6.63;;
16922;SDS011;8578;50.938;13.556;2022-08-21T03:26:29;10.47;;;7.37;;
16922;SDS011;8578;50.938;13.556;2022-08-21T03:28:57;9.87;;;7.07;;
16922;SDS011;8578;50.938;13.556;2022-08-21T03:31:24;11.37;;;7.27;;
16922;SDS011;8578;50.938;13.556;2022-08-21T03:33:54;10.33;;;6.97;;
16922;SDS011;8578;50.938;13.556;2022-08-21T03:36:22;13.90;;;8.00;;
16922;SDS011;8578;50.938;13.556;2022-08-21T03:38:51;11.53;;;7.90;;
16922;SDS011;8578;50.938;13.556;2022-08-21T03:41:18;10.80;;;7.83;;
16922;SDS011;8578;50.938;13.556;2022-08-21T03:43:46;8.97;;;7.33;;
16922;SDS011;8578;50.938;13.556;2022-08-21T03:46:13;10.27;;;7.77;;
16922;SDS011;8578;50.938;13.556;2022-08-21T03:48:41;11.27;;;8.00;;
16922;SDS011;8578;50.938;13.556;2022-08-21T03:51:08;10.80;;;7.53;;
16922;SDS011;8578;50.938;13.556;2022-08-21T03:53:36;11.30;;;7.80;;
16922;SDS011;8578;50.938;13.556;2022-08-21T03:56:05;10.23;;;7.33;;
16922;SDS011;8578;50.938;13.556;2022-08-21T03:58:32;13.07;;;7.70;;
16922;SDS011;8578;50.938;13.556;2022-08-21T04:01:00;10.40;;;7.97;;
16922;SDS011;8578;50.938;13.556;2022-08-21T04:03:28;10.07;;;7.43;;
16922;SDS011;8578;50.938;13.556;2022-08-21T04:05:56;9.17;;;7.20;;
16922;SDS011;8578;50.938;13.556;2022-08-21T04:08:23;11.43;;;7.60;;
16922;SDS011;8578;50.938;13.556;2022-08-21T04:10:51;10.13;;;7.13;;
16922;SDS011;8578;50.938;13.556;2022-08-21T04:13:21;10.80;;;7.27;;
16922;SDS011;8578;50.938;13.556;2022-08-21T04:15:48;10.33;;;7.37;;
16922;SDS011;8578;50.938;13.556;2022-08-21T04:18:16;13.37;;;8.03;;
16922;SDS011;8578;50.938;13.556;2022-08-21T04:20:44;10.90;;;7.63;;
16922;SDS011;8578;50.938;13.556;2022-08-21T04:23:15;10.50;;;8.13;;
16922;SDS011;8578;50.938;13.556;2022-08-21T04:25:50;11.50;;;7.73;;
16922;SDS011;8578;50.938;13.556;2022-08-21T04:28:17;10.37;;;8.10;;
16922;SDS011;8578;50.938;13.556;2022-08-21T04:30:46;11.07;;;8.03;;
16922;SDS011;8578;50.938;13.556;2022-08-21T04:33:14;10.80;;;7.67;;
16922;SDS011;8578;50.938;13.556;2022-08-21T04:35:41;12.33;;;8.87;;
16922;SDS011;8578;50.938;13.556;2022-08-21T04:38:09;9.93;;;8.03;;
16922;SDS011;8578;50.938;13.556;2022-08-21T04:40:37;11.37;;;8.63;;
16922;SDS011;8578;50.938;13.556;2022-08-21T04:43:05;11.37;;;8.50;;
16922;SDS011;8578;50.938;13.556;2022-08-21T04:45:34;11.67;;;8.03;;
16922;SDS011;8578;50.938;13.556;2022-08-21T04:48:04;10.70;;;7.90;;
16922;SDS011;8578;50.938;13.556;2022-08-21T04:50:41;10.93;;;8.00;;
16922;SDS011;8578;50.938;13.556;2022-08-21T04:53:11;10.77;;;7.67;;
16922;SDS011;8578;50.938;13.556;2022-08-21T04:55:40;10.37;;;8.27;;
16922;SDS011;8578;50.938;13.556;2022-08-21T04:58:08;10.83;;;7.87;;
16922;SDS011;8578;50.938;13.556;2022-08-21T05:00:37;14.27;;;8.90;;
16922;SDS011;8578;50.938;13.556;2022-08-21T05:03:06;16.73;;;11.47;;
16922;SDS011;8578;50.938;13.556;2022-08-21T05:05:34;20.33;;;13.87;;
16922;SDS011;8578;50.938;13.556;2022-08-21T05:08:02;24.33;;;14.90;;
16922;SDS011;8578;50.938;13.556;2022-08-21T05:10:30;22.83;;;14.57;;
16922;SDS011;8578;50.938;13.556;2022-08-21T05:12:59;20.07;;;14.63;;
16922;SDS011;8578;50.938;13.556;2022-08-21T05:15:27;24.80;;;15.23;;
16922;SDS011;8578;50.938;13.556;2022-08-21T05:17:56;25.70;;;15.90;;
16922;SDS011;8578;50.938;13.556;2022-08-21T05:20:28;23.43;;;16.13;;
16922;SDS011;8578;50.938;13.556;2022-08-21T05:22:55;24.73;;;16.50;;
16922;SDS011;8578;50.938;13.556;2022-08-21T05:25:24;22.17;;;15.13;;
16922;SDS011;8578;50.938;13.556;2022-08-21T05:27:53;25.47;;;15.77;;
16922;SDS011;8578;50.938;13.556;2022-08-21T05:30:23;22.93;;;15.50;;
16922;SDS011;8578;50.938;13.556;2022-08-21T05:32:55;21.10;;;14.73;;
16922;SDS011;8578;50.938;13.556;2022-08-21T05:35:23;25.83;;;16.33;;
16922;SDS011;8578;50.938;13.556;2022-08-21T05:37:51;21.43;;;15.47;;
16922;SDS011;8578;50.938;13.556;2022-08-21T05:40:19;27.20;;;15.73;;
16922;SDS011;8578;50.938;13.556;2022-08-21T05:42:48;24.27;;;15.60;;
16922;SDS011;8578;50.938;13.556;2022-08-21T05:45:20;21.70;;;15.07;;
16922;SDS011;8578;50.938;13.556;2022-08-21T05:48:09;22.03;;;14.33;;
16922;SDS011;8578;50.938;13.556;2022-08-21T05:50:40;18.03;;;13.53;;
16922;SDS011;8578;50.938;13.556;2022-08-21T05:53:09;24.27;;;16.20;;
16922;SDS011;8578;50.938;13.556;2022-08-21T05:55:37;22.53;;;14.40;;
16922;SDS011;8578;50.938;13.556;2022-08-21T05:58:10;20.40;;;14.73;;
16922;SDS011;8578;50.938;13.556;2022-08-21T06:00:38;19.03;;;13.63;;
16922;SDS011;8578;50.938;13.556;2022-08-21T06:03:10;19.43;;;14.00;;
16922;SDS011;8578;50.938;13.556;2022-08-21T06:05:37;23.20;;;15.00;;
16922;SDS011;8578;50.938;13.556;2022-08-21T06:08:05;19.20;;;13.33;;
16922;SDS011;8578;50.938;13.556;2022-08-21T06:10:33;24.77;;;14.63;;
16922;SDS011;8578;50.938;13.556;2022-08-21T06:13:01;21.70;;;14.67;;
16922;SDS011;8578;50.938;13.556;2022-08-21T06:15:28;24.27;;;14.57;;
16922;SDS011;8578;50.938;13.556;2022-08-21T06:17:56;20.87;;;14.93;;
16922;SDS011;8578;50.938;13.556;2022-08-21T06:20:23;19.63;;;13.83;;
16922;SDS011;8578;50.938;13.556;2022-08-21T06:22:51;19.03;;;13.07;;
16922;SDS011;8578;50.938;13.556;2022-08-21T06:25:19;20.10;;;13.83;;
16922;SDS011;8578;50.938;13.556;2022-08-21T06:27:48;20.30;;;13.60;;
16922;SDS011;8578;50.938;13.556;2022-08-21T06:30:15;19.03;;;14.07;;
16922;SDS011;8578;50.938;13.556;2022-08-21T06:32:43;18.10;;;13.00;;
16922;SDS011;8578;50.938;13.556;2022-08-21T06:35:10;18.40;;;13.23;;
16922;SDS011;8578;50.938;13.556;2022-08-21T06:37:38;20.80;;;13.57;;
16922;SDS011;8578;50.938;13.556;2022-08-21T06:40:06;17.70;;;12.80;;
16922;SDS011;8578;50.938;13.556;2022-08-21T06:42:38;18.47;;;12.53;;
16922;SDS011;8578;50.938;13.556;2022-08-21T06:45:09;17.37;;;11.67;;
16922;SDS011;8578;50.938;13.556;2022-08-21T06:47:37;19.53;;;12.47;;
16922;SDS011;8578;50.938;13.556;2022-08-21T06:50:05;16.73;;;12.10;;
16922;SDS011;8578;50.938;13.556;2022-08-21T06:52:34;16.67;;;12.20;;
16922;SDS011;8578;50.938;13.556;2022-08-21T06:55:02;15.67;;;12.20;;
16922;SDS011;8578;50.938;13.556;2022-08-21T06:57:29;16.57;;;10.87;;
16922;SDS011;8578;50.938;13.556;2022-08-21T06:59:57;15.57;;;11.67;;
16922;SDS011;8578;50.938;13.556;2022-08-21T07:02:26;15.90;;;11.50;;
16922;SDS011;8578;50.938;13.556;2022-08-21T07:04:53;18.17;;;12.23;;
16922;SDS011;8578;50.938;13.556;2022-08-21T07:07:21;18.13;;;11.97;;
16922;SDS011;8578;50.938;13.556;2022-08-21T07:09:48;16.27;;;11.43;;
16922;SDS011;8578;50.938;13.556;2022-08-21T07:12:15;15.10;;;11.20;;
16922;SDS011;8578;50.938;13.556;2022-08-21T07:14:43;15.37;;;10.80;;
16922;SDS011;8578;50.938;13.556;2022-08-21T07:17:10;14.73;;;11.07;;
16922;SDS011;8578;50.938;13.556;2022-08-21T07:19:39;13.30;;;11.00;;
16922;SDS011;8578;50.938;13.556;2022-08-21T07:22:06;14.80;;;11.80;;
16922;SDS011;8578;50.938;13.556;2022-08-21T07:24:34;13.53;;;10.30;;
16922;SDS011;8578;50.938;13.556;2022-08-21T07:27:01;14.97;;;10.10;;
16922;SDS011;8578;50.938;13.556;2022-08-21T07:29:35;12.77;;;10.33;;
16922;SDS011;8578;50.938;13.556;2022-08-21T07:32:02;15.00;;;10.23;;
16922;SDS011;8578;50.938;13.556;2022-08-21T07:34:30;13.93;;;9.90;;
16922;SDS011;8578;50.938;13.556;2022-08-21T07:36:59;11.77;;;9.73;;
16922;SDS011;8578;50.938;13.556;2022-08-21T07:39:35;13.60;;;9.97;;
16922;SDS011;8578;50.938;13.556;2022-08-21T07:42:02;13.60;;;9.60;;
16922;SDS011;8578;50.938;13.556;2022-08-21T07:44:33;12.37;;;9.80;;
16922;SDS011;8578;50.938;13.556;2022-08-21T07:47:01;12.23;;;9.70;;
16922;SDS011;8578;50.938;13.556;2022-08-21T07:49:28;13.33;;;9.53;;
16922;SDS011;8578;50.938;13.556;2022-08-21T07:51:56;13.00;;;9.93;;
16922;SDS011;8578;50.938;13.556;2022-08-21T07:54:25;16.53;;;9.57;;
16922;SDS011;8578;50.938;13.556;2022-08-21T07:57:00;14.03;;;9.80;;
16922;SDS011;8578;50.938;13.556;2022-08-21T07:59:27;11.87;;;8.80;;
16922;SDS011;8578;50.938;13.556;2022-08-21T08:01:55;12.20;;;9.57;;
16922;SDS011;8578;50.938;13.556;2022-08-21T08:04:23;14.90;;;10.83;;
16922;SDS011;8578;50.938;13.556;2022-08-21T08:06:51;12.83;;;10.03;;
16922;SDS011;8578;50.938;13.556;2022-08-21T08:09:19;12.70;;;9.03;;
16922;SDS011;8578;50.938;13.556;2022-08-21T08:11:48;14.27;;;10.03;;
16922;SDS011;8578;50.938;13.556;2022-08-21T08:14:16;11.40;;;9.03;;
16922;SDS011;8578;50.938;13.556;2022-08-21T08:16:43;12.63;;;8.97;;
16922;SDS011;8578;50.938;13.556;2022-08-21T08:19:11;14.67;;;9.30;;
16922;SDS011;8578;50.938;13.556;2022-08-21T08:21:38;12.77;;;9.60;;
16922;SDS011;8578;50.938;13.556;2022-08-21T08:24:06;13.80;;;9.47;;
16922;SDS011;8578;50.938;13.556;2022-08-21T08:26:44;14.53;;;9.90;;
16922;SDS011;8578;50.938;13.556;2022-08-21T08:29:21;12.70;;;9.33;;
16922;SDS011;8578;50.938;13.556;2022-08-21T08:31:49;12.13;;;9.07;;
16922;SDS011;8578;50.938;13.556;2022-08-21T08:34:16;13.50;;;9.70;;
16922;SDS011;8578;50.938;13.556;2022-08-21T08:36:50;16.93;;;9.60;;
16922;SDS011;8578;50.938;13.556;2022-08-21T08:39:18;12.00;;;9.43;;
16922;SDS011;8578;50.938;13.556;2022-08-21T08:41:56;12.00;;;9.07;;
16922;SDS011;8578;50.938;13.556;2022-08-21T08:44:27;13.60;;;9.93;;
16922;SDS011;8578;50.938;13.556;2022-08-21T08:46:55;15.33;;;9.83;;
16922;SDS011;8578;50.938;13.556;2022-08-21T08:49:26;16.40;;;10.17;;
16922;SDS011;8578;50.938;13.556;2022-08-21T08:51:55;12.97;;;10.00;;
16922;SDS011;8578;50.938;13.556;2022-08-21T08:54:25;15.37;;;10.03;;
16922;SDS011;8578;50.938;13.556;2022-08-21T08:56:57;13.67;;;10.33;;
16922;SDS011;8578;50.938;13.556;2022-08-21T08:59:26;15.57;;;9.50;;
16922;SDS011;8578;50.938;13.556;2022-08-21T09:01:56;11.07;;;8.97;;
16922;SDS011;8578;50.938;13.556;2022-08-21T09:04:25;14.90;;;9.77;;
16922;SDS011;8578;50.938;13.556;2022-08-21T09:06:57;12.90;;;9.47;;
16922;SDS011;8578;50.938;13.556;2022-08-21T09:09:30;12.30;;;9.37;;
16922;SDS011;8578;50.938;13.556;2022-08-21T09:11:59;9.97;;;8.53;;
16922;SDS011;8578;50.938;13.556;2022-08-21T09:14:32;11.20;;;7.93;;
16922;SDS011;8578;50.938;13.556;2022-08-21T09:17:11;11.57;;;7.73;;
16922;SDS011;8578;50.938;13.556;2022-08-21T09:19:45;10.30;;;7.50;;
16922;SDS011;8578;50.938;13.556;2022-08-21T09:22:19;12.53;;;7.10;;
16922;SDS011;8578;50.938;13.556;2022-08-21T09:24:53;9.63;;;6.77;;
16922;SDS011;8578;50.938;13.556;2022-08-21T09:27:24;11.47;;;6.67;;
16922;SDS011;8578;50.938;13.556;2022-08-21T09:29:52;9.07;;;5.80;;
16922;SDS011;8578;50.938;13.556;2022-08-21T09:32:22;7.17;;;6.03;;
16922;SDS011;8578;50.938;13.556;2022-08-21T09:35:05;8.77;;;6.17;;
16922;SDS011;8578;50.938;13.556;2022-08-21T09:37:34;10.93;;;5.30;;
16922;SDS011;8578;50.938;13.556;2022-08-21T09:40:03;8.10;;;4.80;;
16922;SDS011;8578;50.938;13.556;2022-08-21T09:42:42;6.87;;;4.40;;
16922;SDS011;8578;50.938;13.556;2022-08-21T09:45:20;13.47;;;4.70;;
16922;SDS011;8578;50.938;13.556;2022-08-21T09:47:49;6.73;;;3.40;;
16922;SDS011;8578;50.938;13.556;2022-08-21T09:50:17;7.43;;;3.13;;
16922;SDS011;8578;50.938;13.556;2022-08-21T09:52:46;6.30;;;2.70;;
16922;SDS011;8578;50.938;13.556;2022-08-21T09:55:23;4.83;;;3.13;;
16922;SDS011;8578;50.938;13.556;2022-08-21T09:58:09;4.70;;;2.80;;
16922;SDS011;8578;50.938;13.556;2022-08-21T10:00:37;5.67;;;2.80;;
16922;SDS011;8578;50.938;13.556;2022-08-21T10:03:10;3.43;;;2.87;;
16922;SDS011;8578;50.938;13.556;2022-08-21T10:05:38;6.00;;;2.43;;
16922;SDS011;8578;50.938;13.556;2022-08-21T10:08:15;3.63;;;2.03;;
16922;SDS011;8578;50.938;13.556;2022-08-21T10:10:43;4.23;;;2.57;;
16922;SDS011;8578;50.938;13.556;2022-08-21T10:13:12;3.47;;;2.10;;
16922;SDS011;8578;50.938;13.556;2022-08-21T10:15:43;4.97;;;2.43;;
16922;SDS011;8578;50.938;13.556;2022-08-21T10:18:18;2.77;;;2.10;;
16922;SDS011;8578;50.938;13.556;2022-08-21T10:20:49;3.40;;;2.07;;
16922;SDS011;8578;50.938;13.556;2022-08-21T10:23:26;5.27;;;2.10;;
16922;SDS011;8578;50.938;13.556;2022-08-21T10:25:57;7.13;;;2.47;;
16922;SDS011;8578;50.938;13.556;2022-08-21T10:28:40;4.83;;;2.10;;
16922;SDS011;8578;50.938;13.556;2022-08-21T10:31:11;4.80;;;2.40;;
16922;SDS011;8578;50.938;13.556;2022-08-21T10:33:42;5.13;;;2.33;;
16922;SDS011;8578;50.938;13.556;2022-08-21T10:36:12;3.70;;;2.03;;
16922;SDS011;8578;50.938;13.556;2022-08-21T10:38:45;4.37;;;2.50;;
16922;SDS011;8578;50.938;13.556;2022-08-21T10:41:41;7.07;;;2.27;;
16922;SDS011;8578;50.938;13.556;2022-08-21T10:44:18;4.57;;;2.00;;
16922;SDS011;8578;50.938;13.556;2022-08-21T10:46:51;3.33;;;1.90;;
16922;SDS011;8578;50.938;13.556;2022-08-21T10:49:24;6.30;;;2.00;;
16922;SDS011;8578;50.938;13.556;2022-08-21T10:51:54;8.43;;;1.83;;
16922;SDS011;8578;50.938;13.556;2022-08-21T10:54:25;4.13;;;1.83;;
16922;SDS011;8578;50.938;13.556;2022-08-21T10:56:56;4.47;;;1.90;;
16922;SDS011;8578;50.938;13.556;2022-08-21T10:59:31;4.27;;;1.93;;
16922;SDS011;8578;50.938;13.556;2022-08-21T11:02:08;6.10;;;2.00;;
16922;SDS011;8578;50.938;13.556;2022-08-21T11:04:53;4.43;;;2.07;;
16922;SDS011;8578;50.938;13.556;2022-08-21T11:07:25;3.43;;;1.77;;
16922;SDS011;8578;50.938;13.556;2022-08-21T11:10:00;4.40;;;2.10;;
16922;SDS011;8578;50.938;13.556;2022-08-21T11:12:33;5.20;;;2.00;;
16922;SDS011;8578;50.938;13.556;2022-08-21T11:15:02;5.03;;;1.90;;
16922;SDS011;8578;50.938;13.556;2022-08-21T11:17:34;6.50;;;2.40;;
16922;SDS011;8578;50.938;13.556;2022-08-21T11:20:05;4.20;;;1.73;;
16922;SDS011;8578;50.938;13.556;2022-08-21T11:22:36;5.37;;;2.20;;
16922;SDS011;8578;50.938;13.556;2022-08-21T11:25:06;4.60;;;2.10;;
16922;SDS011;8578;50.938;13.556;2022-08-21T11:27:36;3.57;;;1.97;;
16922;SDS011;8578;50.938;13.556;2022-08-21T11:30:06;4.53;;;2.23;;
16922;SDS011;8578;50.938;13.556;2022-08-21T11:32:39;4.33;;;1.83;;
16922;SDS011;8578;50.938;13.556;2022-08-21T11:35:12;3.80;;;1.87;;
16922;SDS011;8578;50.938;13.556;2022-08-21T11:37:45;4.67;;;1.80;;
16922;SDS011;8578;50.938;13.556;2022-08-21T11:40:16;5.47;;;1.70;;
16922;SDS011;8578;50.938;13.556;2022-08-21T11:42:50;4.30;;;1.67;;
16922;SDS011;8578;50.938;13.556;2022-08-21T11:45:22;5.40;;;1.60;;
16922;SDS011;8578;50.938;13.556;2022-08-21T11:47:56;3.40;;;1.80;;
16922;SDS011;8578;50.938;13.556;2022-08-21T11:50:28;6.63;;;1.90;;
16922;SDS011;8578;50.938;13.556;2022-08-21T11:53:03;6.27;;;1.80;;
16922;SDS011;8578;50.938;13.556;2022-08-21T11:55:33;7.90;;;2.07;;
16922;SDS011;8578;50.938;13.556;2022-08-21T11:58:04;5.80;;;1.83;;
16922;SDS011;8578;50.938;13.556;2022-08-21T12:00:33;8.17;;;2.17;;
16922;SDS011;8578;50.938;13.556;2022-08-21T12:03:06;6.13;;;1.80;;
16922;SDS011;8578;50.938;13.556;2022-08-21T12:05:36;5.97;;;2.17;;
16922;SDS011;8578;50.938;13.556;2022-08-21T12:08:06;4.10;;;1.97;;
16922;SDS011;8578;50.938;13.556;2022-08-21T12:10:36;2.83;;;1.70;;
16922;SDS011;8578;50.938;13.556;2022-08-21T12:13:07;7.13;;;1.80;;
16922;SDS011;8578;50.938;13.556;2022-08-21T12:15:36;4.60;;;1.80;;
16922;SDS011;8578;50.938;13.556;2022-08-21T12:18:04;4.93;;;1.43;;
16922;SDS011;8578;50.938;13.556;2022-08-21T12:20:44;4.30;;;1.70;;
16922;SDS011;8578;50.938;13.556;2022-08-21T12:23:28;3.77;;;1.70;;
16922;SDS011;8578;50.938;13.556;2022-08-21T12:26:01;4.63;;;1.90;;
16922;SDS011;8578;50.938;13.556;2022-08-21T12:28:30;4.57;;;1.70;;
16922;SDS011;8578;50.938;13.556;2022-08-21T12:30:58;6.20;;;1.77;;
16922;SDS011;8578;50.938;13.556;2022-08-21T12:33:27;5.67;;;1.70;;
16922;SDS011;8578;50.938;13.556;2022-08-21T12:36:03;4.40;;;1.97;;
16922;SDS011;8578;50.938;13.556;2022-08-21T12:38:33;5.00;;;1.30;;
16922;SDS011;8578;50.938;13.556;2022-08-21T12:41:03;3.43;;;1.60;;
16922;SDS011;8578;50.938;13.556;2022-08-21T12:43:33;2.40;;;1.30;;
16922;SDS011;8578;50.938;13.556;2022-08-21T12:46:03;4.80;;;1.67;;
16922;SDS011;8578;50.938;13.556;2022-08-21T12:48:31;6.77;;;1.33;;
16922;SDS011;8578;50.938;13.556;2022-08-21T12:51:06;4.93;;;1.60;;
16922;SDS011;8578;50.938;13.556;2022-08-21T12:53:35;3.23;;;1.30;;
16922;SDS011;8578;50.938;13.556;2022-08-21T12:56:08;5.13;;;1.53;;
16922;SDS011;8578;50.938;13.556;2022-08-21T12:58:39;3.50;;;1.53;;
16922;SDS011;8578;50.938;13.556;2022-08-21T13:01:08;23.93;;;2.10;;
16922;SDS011;8578;50.938;13.556;2022-08-21T13:03:40;4.13;;;1.50;;
16922;SDS011;8578;50.938;13.556;2022-08-21T13:06:12;8.97;;;2.20;;
16922;SDS011;8578;50.938;13.556;2022-08-21T13:08:41;4.67;;;1.80;;
16922;SDS011;8578;50.938;13.556;2022-08-21T13:11:14;4.27;;;2.00;;
16922;SDS011;8578;50.938;13.556;2022-08-21T13:13:58;5.03;;;1.50;;
16922;SDS011;8578;50.938;13.556;2022-08-21T13:16:30;5.30;;;1.50;;
16922;SDS011;8578;50.938;13.556;2022-08-21T13:19:02;3.20;;;1.33;;
16922;SDS011;8578;50.938;13.556;2022-08-21T13:21:32;5.10;;;1.70;;
16922;SDS011;8578;50.938;13.556;2022-08-21T13:24:08;3.13;;;1.47;;
16922;SDS011;8578;50.938;13.556;2022-08-21T13:26:57;5.37;;;1.30;;
16922;SDS011;8578;50.938;13.556;2022-08-21T13:29:27;4.47;;;1.67;;
16922;SDS011;8578;50.938;13.556;2022-08-21T13:31:57;3.93;;;1.57;;
16922;SDS011;8578;50.938;13.556;2022-08-21T13:34:25;3.80;;;1.73;;
16922;SDS011;8578;50.938;13.556;2022-08-21T13:36:55;5.60;;;1.70;;
16922;SDS011;8578;50.938;13.556;2022-08-21T13:39:24;6.63;;;1.70;;
16922;SDS011;8578;50.938;13.556;2022-08-21T13:41:54;3.93;;;1.60;;
16922;SDS011;8578;50.938;13.556;2022-08-21T13:44:23;3.50;;;1.33;;
16922;SDS011;8578;50.938;13.556;2022-08-21T13:46:53;4.77;;;1.50;;
16922;SDS011;8578;50.938;13.556;2022-08-21T13:49:24;3.43;;;1.53;;
16922;SDS011;8578;50.938;13.556;2022-08-21T13:51:55;4.77;;;1.30;;
16922;SDS011;8578;50.938;13.556;2022-08-21T13:54:24;5.20;;;1.83;;
16922;SDS011;8578;50.938;13.556;2022-08-21T13:56:53;6.40;;;1.83;;
16922;SDS011;8578;50.938;13.556;2022-08-21T13:59:28;4.90;;;1.40;;
16922;SDS011;8578;50.938;13.556;2022-08-21T14:01:57;3.27;;;1.50;;
16922;SDS011;8578;50.938;13.556;2022-08-21T14:04:29;2.33;;;1.20;;
16922;SDS011;8578;50.938;13.556;2022-08-21T14:07:00;3.20;;;1.40;;
16922;SDS011;8578;50.938;13.556;2022-08-21T14:09:30;5.40;;;1.43;;
16922;SDS011;8578;50.938;13.556;2022-08-21T14:11:58;6.53;;;1.90;;
16922;SDS011;8578;50.938;13.556;2022-08-21T14:14:28;3.63;;;1.30;;
16922;SDS011;8578;50.938;13.556;2022-08-21T14:16:58;5.27;;;1.53;;
16922;SDS011;8578;50.938;13.556;2022-08-21T14:19:46;3.63;;;1.57;;
16922;SDS011;8578;50.938;13.556;2022-08-21T14:22:29;3.70;;;1.30;;
16922;SDS011;8578;50.938;13.556;2022-08-21T14:25:01;4.23;;;1.43;;
16922;SDS011;8578;50.938;13.556;2022-08-21T14:27:30;8.00;;;1.47;;
16922;SDS011;8578;50.938;13.556;2022-08-21T14:29:58;4.20;;;1.40;;
16922;SDS011;8578;50.938;13.556;2022-08-21T14:32:27;2.10;;;1.33;;
16922;SDS011;8578;50.938;13.556;2022-08-21T14:34:59;7.80;;;1.43;;
16922;SDS011;8578;50.938;13.556;2022-08-21T14:37:28;2.27;;;1.17;;
16922;SDS011;8578;50.938;13.556;2022-08-21T14:39:55;4.90;;;1.53;;
16922;SDS011;8578;50.938;13.556;2022-08-21T14:42:23;3.10;;;1.40;;
16922;SDS011;8578;50.938;13.556;2022-08-21T14:44:51;5.40;;;1.33;;
16922;SDS011;8578;50.938;13.556;2022-08-21T14:47:21;4.20;;;1.50;;
16922;SDS011;8578;50.938;13.556;2022-08-21T14:49:48;6.70;;;1.40;;
16922;SDS011;8578;50.938;13.556;2022-08-21T14:52:16;4.20;;;1.40;;